sensor_id;sensor_type;location;lat;lon;timestamp;temperature;humidity
60287;DHT22;46141;52.382;5.270;2023-04-10T00:00:32;21.40;61.90
60287;DHT22;46141;52.382;5.270;2023-04-10T00:03:00;21.40;61.80
60287;DHT22;46141;52.382;5.270;2023-04-10T00:05:26;21.40;61.80
60287;DHT22;46141;52.382;5.270;2023-04-10T00:07:52;21.40;61.90
60287;DHT22;46141;52.382;5.270;2023-04-10T00:10:18;21.30;62.10
60287;DHT22;46141;52.382;5.270;2023-04-10T00:12:44;21.30;61.90
60287;DHT22;46141;52.382;5.270;2023-04-10T00:15:10;21.30;61.80
60287;DHT22;46141;52.382;5.270;2023-04-10T00:17:36;21.30;61.90
60287;DHT22;46141;52.382;5.270;2023-04-10T00:20:02;21.30;61.80
60287;DHT22;46141;52.382;5.270;2023-04-10T00:22:29;21.30;61.70
60287;DHT22;46141;52.382;5.270;2023-04-10T00:24:55;21.30;61.80
60287;DHT22;46141;52.382;5.270;2023-04-10T00:27:20;21.30;61.80
60287;DHT22;46141;52.382;5.270;2023-04-10T00:29:46;21.30;61.80
60287;DHT22;46141;52.382;5.270;2023-04-10T00:32:12;21.20;61.70
60287;DHT22;46141;52.382;5.270;2023-04-10T00:34:38;21.20;61.80
60287;DHT22;46141;52.382;5.270;2023-04-10T00:37:03;21.20;61.90
60287;DHT22;46141;52.382;5.270;2023-04-10T00:39:29;21.20;61.90
60287;DHT22;46141;52.382;5.270;2023-04-10T00:41:55;21.20;61.90
60287;DHT22;46141;52.382;5.270;2023-04-10T00:44:22;21.20;61.90
60287;DHT22;46141;52.382;5.270;2023-04-10T00:46:47;21.20;62.00
60287;DHT22;46141;52.382;5.270;2023-04-10T00:49:13;21.20;61.90
60287;DHT22;46141;52.382;5.270;2023-04-10T00:51:39;21.20;61.90
60287;DHT22;46141;52.382;5.270;2023-04-10T00:54:06;21.10;61.90
60287;DHT22;46141;52.382;5.270;2023-04-10T00:56:36;21.10;62.00
60287;DHT22;46141;52.382;5.270;2023-04-10T00:59:02;21.10;62.00
60287;DHT22;46141;52.382;5.270;2023-04-10T01:01:27;21.10;62.00
60287;DHT22;46141;52.382;5.270;2023-04-10T01:03:53;21.10;62.00
60287;DHT22;46141;52.382;5.270;2023-04-10T01:06:43;21.10;62.00
60287;DHT22;46141;52.382;5.270;2023-04-10T01:12:06;21.10;62.00
60287;DHT22;46141;52.382;5.270;2023-04-10T01:17:34;21.00;62.10
60287;DHT22;46141;52.382;5.270;2023-04-10T01:20:23;21.00;61.90
60287;DHT22;46141;52.382;5.270;2023-04-10T01:23:20;21.00;62.00
60287;DHT22;46141;52.382;5.270;2023-04-10T01:25:55;21.00;62.10
60287;DHT22;46141;52.382;5.270;2023-04-10T01:31:24;20.90;62.10
60287;DHT22;46141;52.382;5.270;2023-04-10T01:34:01;21.00;62.00
60287;DHT22;46141;52.382;5.270;2023-04-10T01:36:35;21.00;61.90
60287;DHT22;46141;52.382;5.270;2023-04-10T01:39:03;20.90;61.80
60287;DHT22;46141;52.382;5.270;2023-04-10T01:41:32;20.90;61.80
60287;DHT22;46141;52.382;5.270;2023-04-10T01:44:00;20.90;61.70
60287;DHT22;46141;52.382;5.270;2023-04-10T01:46:29;20.90;61.70
60287;DHT22;46141;52.382;5.270;2023-04-10T01:49:00;20.90;61.70
60287;DHT22;46141;52.382;5.270;2023-04-10T01:51:29;20.90;61.70
60287;DHT22;46141;52.382;5.270;2023-04-10T01:53:56;20.90;61.60
60287;DHT22;46141;52.382;5.270;2023-04-10T01:56:22;20.90;61.60
60287;DHT22;46141;52.382;5.270;2023-04-10T01:58:48;20.90;61.60
60287;DHT22;46141;52.382;5.270;2023-04-10T02:01:19;20.80;61.50
60287;DHT22;46141;52.382;5.270;2023-04-10T02:03:45;20.90;61.50
60287;DHT22;46141;52.382;5.270;2023-04-10T02:09:24;20.90;61.50
60287;DHT22;46141;52.382;5.270;2023-04-10T02:12:09;20.90;61.50
60287;DHT22;46141;52.382;5.270;2023-04-10T02:14:41;20.80;61.30
60287;DHT22;46141;52.382;5.270;2023-04-10T02:17:13;20.80;61.30
60287;DHT22;46141;52.382;5.270;2023-04-10T02:19:40;20.80;61.30
60287;DHT22;46141;52.382;5.270;2023-04-10T02:22:07;20.80;61.30
60287;DHT22;46141;52.382;5.270;2023-04-10T02:24:34;20.80;61.30
60287;DHT22;46141;52.382;5.270;2023-04-10T02:27:00;20.80;61.30
60287;DHT22;46141;52.382;5.270;2023-04-10T02:29:26;20.80;61.20
60287;DHT22;46141;52.382;5.270;2023-04-10T02:31:52;20.80;61.20
60287;DHT22;46141;52.382;5.270;2023-04-10T02:34:17;20.80;61.30
60287;DHT22;46141;52.382;5.270;2023-04-10T02:36:43;20.80;61.20
60287;DHT22;46141;52.382;5.270;2023-04-10T02:39:09;20.80;61.10
60287;DHT22;46141;52.382;5.270;2023-04-10T02:41:34;20.80;61.10
60287;DHT22;46141;52.382;5.270;2023-04-10T02:44:00;20.80;61.10
60287;DHT22;46141;52.382;5.270;2023-04-10T02:46:26;20.80;61.10
60287;DHT22;46141;52.382;5.270;2023-04-10T02:48:52;20.80;61.10
60287;DHT22;46141;52.382;5.270;2023-04-10T02:51:18;20.80;61.10
60287;DHT22;46141;52.382;5.270;2023-04-10T02:53:43;20.80;61.60
60287;DHT22;46141;52.382;5.270;2023-04-10T02:56:09;20.80;61.00
60287;DHT22;46141;52.382;5.270;2023-04-10T02:58:37;20.80;60.90
60287;DHT22;46141;52.382;5.270;2023-04-10T03:01:04;20.80;60.90
60287;DHT22;46141;52.382;5.270;2023-04-10T03:03:31;20.80;60.90
60287;DHT22;46141;52.382;5.270;2023-04-10T03:05:57;20.80;61.00
60287;DHT22;46141;52.382;5.270;2023-04-10T03:08:22;20.80;60.90
60287;DHT22;46141;52.382;5.270;2023-04-10T03:10:48;20.80;60.90
60287;DHT22;46141;52.382;5.270;2023-04-10T03:13:15;20.80;60.90
60287;DHT22;46141;52.382;5.270;2023-04-10T03:15:40;20.80;60.90
60287;DHT22;46141;52.382;5.270;2023-04-10T03:18:07;20.80;60.80
60287;DHT22;46141;52.382;5.270;2023-04-10T03:20:35;20.80;60.80
60287;DHT22;46141;52.382;5.270;2023-04-10T03:23:01;20.80;60.80
60287;DHT22;46141;52.382;5.270;2023-04-10T03:25:27;20.80;60.80
60287;DHT22;46141;52.382;5.270;2023-04-10T03:27:53;20.80;60.70
60287;DHT22;46141;52.382;5.270;2023-04-10T03:30:20;20.80;60.70
60287;DHT22;46141;52.382;5.270;2023-04-10T03:32:45;20.80;60.70
60287;DHT22;46141;52.382;5.270;2023-04-10T03:35:11;20.80;60.70
60287;DHT22;46141;52.382;5.270;2023-04-10T03:37:37;20.70;60.70
60287;DHT22;46141;52.382;5.270;2023-04-10T03:40:07;20.70;61.20
60287;DHT22;46141;52.382;5.270;2023-04-10T03:42:33;20.80;60.70
60287;DHT22;46141;52.382;5.270;2023-04-10T03:44:59;20.70;60.60
60287;DHT22;46141;52.382;5.270;2023-04-10T03:47:31;20.80;60.60
60287;DHT22;46141;52.382;5.270;2023-04-10T03:49:57;20.70;60.50
60287;DHT22;46141;52.382;5.270;2023-04-10T03:52:24;20.70;60.50
60287;DHT22;46141;52.382;5.270;2023-04-10T03:54:49;20.70;60.50
60287;DHT22;46141;52.382;5.270;2023-04-10T03:57:16;20.70;60.50
60287;DHT22;46141;52.382;5.270;2023-04-10T03:59:43;20.80;60.60
60287;DHT22;46141;52.382;5.270;2023-04-10T04:02:08;20.70;60.50
60287;DHT22;46141;52.382;5.270;2023-04-10T04:04:35;20.80;60.40
60287;DHT22;46141;52.382;5.270;2023-04-10T04:07:00;20.80;60.40
60287;DHT22;46141;52.382;5.270;2023-04-10T04:09:26;20.70;60.40
60287;DHT22;46141;52.382;5.270;2023-04-10T04:11:52;20.80;60.50
60287;DHT22;46141;52.382;5.270;2023-04-10T04:14:17;20.70;60.30
60287;DHT22;46141;52.382;5.270;2023-04-10T04:16:43;20.70;60.30
60287;DHT22;46141;52.382;5.270;2023-04-10T04:19:09;20.80;60.30
60287;DHT22;46141;52.382;5.270;2023-04-10T04:21:34;20.70;60.30
60287;DHT22;46141;52.382;5.270;2023-04-10T04:24:00;20.70;60.30
60287;DHT22;46141;52.382;5.270;2023-04-10T04:26:26;20.70;60.30
60287;DHT22;46141;52.382;5.270;2023-04-10T04:28:51;20.80;60.30
60287;DHT22;46141;52.382;5.270;2023-04-10T04:31:17;20.80;60.30
60287;DHT22;46141;52.382;5.270;2023-04-10T04:33:43;20.70;60.20
60287;DHT22;46141;52.382;5.270;2023-04-10T04:36:08;20.80;60.20
60287;DHT22;46141;52.382;5.270;2023-04-10T04:38:34;20.80;60.20
60287;DHT22;46141;52.382;5.270;2023-04-10T04:40:59;20.70;60.10
60287;DHT22;46141;52.382;5.270;2023-04-10T04:43:25;20.80;60.10
60287;DHT22;46141;52.382;5.270;2023-04-10T04:45:51;20.80;60.20
60287;DHT22;46141;52.382;5.270;2023-04-10T04:48:16;20.80;60.20
60287;DHT22;46141;52.382;5.270;2023-04-10T04:50:42;20.70;60.10
60287;DHT22;46141;52.382;5.270;2023-04-10T04:53:08;20.70;60.10
60287;DHT22;46141;52.382;5.270;2023-04-10T04:55:34;20.80;60.20
60287;DHT22;46141;52.382;5.270;2023-04-10T04:57:59;20.80;60.20
60287;DHT22;46141;52.382;5.270;2023-04-10T05:00:25;20.80;60.10
60287;DHT22;46141;52.382;5.270;2023-04-10T05:02:51;20.80;60.10
60287;DHT22;46141;52.382;5.270;2023-04-10T05:05:16;20.80;60.10
60287;DHT22;46141;52.382;5.270;2023-04-10T05:07:42;20.80;60.00
60287;DHT22;46141;52.382;5.270;2023-04-10T05:10:08;20.80;60.00
60287;DHT22;46141;52.382;5.270;2023-04-10T05:12:34;20.80;60.00
60287;DHT22;46141;52.382;5.270;2023-04-10T05:15:00;20.80;60.00
60287;DHT22;46141;52.382;5.270;2023-04-10T05:17:26;20.80;60.00
60287;DHT22;46141;52.382;5.270;2023-04-10T05:19:51;20.80;59.90
60287;DHT22;46141;52.382;5.270;2023-04-10T05:22:17;20.80;59.90
60287;DHT22;46141;52.382;5.270;2023-04-10T05:24:43;20.80;59.90
60287;DHT22;46141;52.382;5.270;2023-04-10T05:27:08;20.80;59.90
60287;DHT22;46141;52.382;5.270;2023-04-10T05:29:34;20.80;59.90
60287;DHT22;46141;52.382;5.270;2023-04-10T05:32:00;20.80;59.80
60287;DHT22;46141;52.382;5.270;2023-04-10T05:34:26;20.80;59.80
60287;DHT22;46141;52.382;5.270;2023-04-10T05:36:51;20.80;59.90
60287;DHT22;46141;52.382;5.270;2023-04-10T05:39:17;20.80;59.90
60287;DHT22;46141;52.382;5.270;2023-04-10T05:41:43;20.80;59.80
60287;DHT22;46141;52.382;5.270;2023-04-10T05:44:08;20.80;59.80
60287;DHT22;46141;52.382;5.270;2023-04-10T05:46:34;20.80;59.70
60287;DHT22;46141;52.382;5.270;2023-04-10T05:49:00;20.80;59.80
60287;DHT22;46141;52.382;5.270;2023-04-10T05:51:26;20.80;59.70
60287;DHT22;46141;52.382;5.270;2023-04-10T05:53:51;20.80;59.80
60287;DHT22;46141;52.382;5.270;2023-04-10T05:56:17;20.80;59.70
60287;DHT22;46141;52.382;5.270;2023-04-10T05:58:43;20.80;59.70
60287;DHT22;46141;52.382;5.270;2023-04-10T06:01:08;20.80;59.70
60287;DHT22;46141;52.382;5.270;2023-04-10T06:03:34;20.80;59.60
60287;DHT22;46141;52.382;5.270;2023-04-10T06:06:00;20.80;59.60
60287;DHT22;46141;52.382;5.270;2023-04-10T06:08:27;20.80;59.60
60287;DHT22;46141;52.382;5.270;2023-04-10T06:10:52;20.80;59.60
60287;DHT22;46141;52.382;5.270;2023-04-10T06:13:18;20.80;59.60
60287;DHT22;46141;52.382;5.270;2023-04-10T06:15:44;20.90;59.60
60287;DHT22;46141;52.382;5.270;2023-04-10T06:18:10;20.80;59.60
60287;DHT22;46141;52.382;5.270;2023-04-10T06:20:36;20.80;59.60
60287;DHT22;46141;52.382;5.270;2023-04-10T06:23:01;20.80;59.60
60287;DHT22;46141;52.382;5.270;2023-04-10T06:25:27;20.80;59.60
60287;DHT22;46141;52.382;5.270;2023-04-10T06:27:53;20.80;59.50
60287;DHT22;46141;52.382;5.270;2023-04-10T06:30:19;20.80;59.50
60287;DHT22;46141;52.382;5.270;2023-04-10T06:32:45;20.90;59.50
60287;DHT22;46141;52.382;5.270;2023-04-10T06:35:11;20.90;59.50
60287;DHT22;46141;52.382;5.270;2023-04-10T06:37:36;20.90;59.40
60287;DHT22;46141;52.382;5.270;2023-04-10T06:40:09;20.90;59.50
60287;DHT22;46141;52.382;5.270;2023-04-10T06:42:36;20.80;59.50
60287;DHT22;46141;52.382;5.270;2023-04-10T06:45:02;20.80;59.50
60287;DHT22;46141;52.382;5.270;2023-04-10T06:47:28;20.80;59.60
60287;DHT22;46141;52.382;5.270;2023-04-10T06:49:55;20.80;59.50
60287;DHT22;46141;52.382;5.270;2023-04-10T06:52:20;20.90;59.50
60287;DHT22;46141;52.382;5.270;2023-04-10T06:54:46;20.90;59.40
60287;DHT22;46141;52.382;5.270;2023-04-10T06:57:12;20.90;59.40
60287;DHT22;46141;52.382;5.270;2023-04-10T06:59:37;20.90;59.40
60287;DHT22;46141;52.382;5.270;2023-04-10T07:02:03;20.90;59.40
60287;DHT22;46141;52.382;5.270;2023-04-10T07:04:30;20.90;59.40
60287;DHT22;46141;52.382;5.270;2023-04-10T07:06:56;20.90;59.50
60287;DHT22;46141;52.382;5.270;2023-04-10T07:09:23;20.90;59.50
60287;DHT22;46141;52.382;5.270;2023-04-10T07:11:50;20.90;59.40
60287;DHT22;46141;52.382;5.270;2023-04-10T07:14:16;20.90;59.30
60287;DHT22;46141;52.382;5.270;2023-04-10T07:16:42;20.90;59.30
60287;DHT22;46141;52.382;5.270;2023-04-10T07:19:08;20.90;59.30
60287;DHT22;46141;52.382;5.270;2023-04-10T07:21:33;20.90;59.40
60287;DHT22;46141;52.382;5.270;2023-04-10T07:23:59;21.00;59.40
60287;DHT22;46141;52.382;5.270;2023-04-10T07:26:24;21.00;59.40
60287;DHT22;46141;52.382;5.270;2023-04-10T07:28:50;21.00;59.50
60287;DHT22;46141;52.382;5.270;2023-04-10T07:31:16;21.00;59.30
60287;DHT22;46141;52.382;5.270;2023-04-10T07:33:45;21.00;59.50
60287;DHT22;46141;52.382;5.270;2023-04-10T07:36:13;21.00;59.70
60287;DHT22;46141;52.382;5.270;2023-04-10T07:38:40;21.00;59.70
60287;DHT22;46141;52.382;5.270;2023-04-10T07:41:06;21.10;60.10
60287;DHT22;46141;52.382;5.270;2023-04-10T07:43:32;21.10;60.80
60287;DHT22;46141;52.382;5.270;2023-04-10T07:45:57;21.10;60.70
60287;DHT22;46141;52.382;5.270;2023-04-10T07:48:23;21.20;60.70
60287;DHT22;46141;52.382;5.270;2023-04-10T07:50:49;21.10;60.80
60287;DHT22;46141;52.382;5.270;2023-04-10T07:53:14;21.20;60.30
60287;DHT22;46141;52.382;5.270;2023-04-10T07:55:44;21.20;60.30
60287;DHT22;46141;52.382;5.270;2023-04-10T07:58:13;21.20;60.40
60287;DHT22;46141;52.382;5.270;2023-04-10T08:00:39;21.20;60.00
60287;DHT22;46141;52.382;5.270;2023-04-10T08:03:05;21.20;59.00
60287;DHT22;46141;52.382;5.270;2023-04-10T08:05:31;21.20;59.30
60287;DHT22;46141;52.382;5.270;2023-04-10T08:07:58;21.20;58.70
60287;DHT22;46141;52.382;5.270;2023-04-10T08:10:24;21.20;59.50
60287;DHT22;46141;52.382;5.270;2023-04-10T08:12:50;21.20;60.20
60287;DHT22;46141;52.382;5.270;2023-04-10T08:15:17;21.20;60.30
60287;DHT22;46141;52.382;5.270;2023-04-10T08:17:42;21.20;60.50
60287;DHT22;46141;52.382;5.270;2023-04-10T08:20:09;21.20;60.80
60287;DHT22;46141;52.382;5.270;2023-04-10T08:22:35;21.20;60.80
60287;DHT22;46141;52.382;5.270;2023-04-10T08:25:01;21.20;60.50
60287;DHT22;46141;52.382;5.270;2023-04-10T08:27:27;21.20;60.70
60287;DHT22;46141;52.382;5.270;2023-04-10T08:29:55;21.30;58.40
60287;DHT22;46141;52.382;5.270;2023-04-10T08:32:21;21.20;57.50
60287;DHT22;46141;52.382;5.270;2023-04-10T08:34:47;21.20;57.40
60287;DHT22;46141;52.382;5.270;2023-04-10T08:37:13;21.30;59.30
60287;DHT22;46141;52.382;5.270;2023-04-10T08:39:40;21.30;60.50
60287;DHT22;46141;52.382;5.270;2023-04-10T08:42:06;21.30;60.60
60287;DHT22;46141;52.382;5.270;2023-04-10T08:44:32;21.30;61.60
60287;DHT22;46141;52.382;5.270;2023-04-10T08:46:59;21.30;61.20
60287;DHT22;46141;52.382;5.270;2023-04-10T08:49:44;21.30;61.20
60287;DHT22;46141;52.382;5.270;2023-04-10T08:52:20;21.30;60.60
60287;DHT22;46141;52.382;5.270;2023-04-10T08:54:52;21.30;61.00
60287;DHT22;46141;52.382;5.270;2023-04-10T08:57:20;21.30;60.80
60287;DHT22;46141;52.382;5.270;2023-04-10T08:59:47;21.30;59.30
60287;DHT22;46141;52.382;5.270;2023-04-10T09:02:13;21.30;59.60
60287;DHT22;46141;52.382;5.270;2023-04-10T09:04:51;21.30;60.10
60287;DHT22;46141;52.382;5.270;2023-04-10T09:07:20;21.30;60.20
60287;DHT22;46141;52.382;5.270;2023-04-10T09:09:47;21.30;60.40
60287;DHT22;46141;52.382;5.270;2023-04-10T09:12:13;21.40;59.70
60287;DHT22;46141;52.382;5.270;2023-04-10T09:14:41;21.40;58.90
60287;DHT22;46141;52.382;5.270;2023-04-10T09:17:21;21.30;58.40
60287;DHT22;46141;52.382;5.270;2023-04-10T09:19:48;21.30;58.40
60287;DHT22;46141;52.382;5.270;2023-04-10T09:22:15;21.30;58.40
60287;DHT22;46141;52.382;5.270;2023-04-10T09:24:44;21.30;58.20
60287;DHT22;46141;52.382;5.270;2023-04-10T09:27:09;21.30;58.20
60287;DHT22;46141;52.382;5.270;2023-04-10T09:29:44;21.40;58.40
60287;DHT22;46141;52.382;5.270;2023-04-10T09:32:11;21.30;58.50
60287;DHT22;46141;52.382;5.270;2023-04-10T09:34:57;21.30;58.50
60287;DHT22;46141;52.382;5.270;2023-04-10T09:37:30;21.30;58.40
60287;DHT22;46141;52.382;5.270;2023-04-10T09:39:56;21.30;58.50
60287;DHT22;46141;52.382;5.270;2023-04-10T09:42:36;21.30;58.40
60287;DHT22;46141;52.382;5.270;2023-04-10T09:45:03;21.30;58.20
60287;DHT22;46141;52.382;5.270;2023-04-10T09:47:30;21.30;58.60
60287;DHT22;46141;52.382;5.270;2023-04-10T09:49:57;21.30;60.30
60287;DHT22;46141;52.382;5.270;2023-04-10T09:54:56;21.40;61.30
60287;DHT22;46141;52.382;5.270;2023-04-10T09:57:24;21.40;61.40
60287;DHT22;46141;52.382;5.270;2023-04-10T09:59:55;21.40;61.60
60287;DHT22;46141;52.382;5.270;2023-04-10T10:02:24;21.40;61.90
60287;DHT22;46141;52.382;5.270;2023-04-10T10:04:50;21.40;61.90
60287;DHT22;46141;52.382;5.270;2023-04-10T10:07:19;21.50;61.80
60287;DHT22;46141;52.382;5.270;2023-04-10T10:09:47;21.50;61.80
60287;DHT22;46141;52.382;5.270;2023-04-10T10:13:08;21.50;61.80
60287;DHT22;46141;52.382;5.270;2023-04-10T10:18:53;21.50;61.90
60287;DHT22;46141;52.382;5.270;2023-04-10T10:21:12;21.50;62.00
60287;DHT22;46141;52.382;5.270;2023-04-10T10:23:39;21.50;61.70
60287;DHT22;46141;52.382;5.270;2023-04-10T10:26:09;21.50;61.90
60287;DHT22;46141;52.382;5.270;2023-04-10T10:28:35;21.50;61.60
60287;DHT22;46141;52.382;5.270;2023-04-10T10:31:03;21.50;61.80
60287;DHT22;46141;52.382;5.270;2023-04-10T10:33:29;21.50;61.90
60287;DHT22;46141;52.382;5.270;2023-04-10T10:35:59;21.50;61.60
60287;DHT22;46141;52.382;5.270;2023-04-10T10:38:26;21.50;61.80
60287;DHT22;46141;52.382;5.270;2023-04-10T10:41:19;21.50;61.30
60287;DHT22;46141;52.382;5.270;2023-04-10T10:44:15;21.50;62.30
60287;DHT22;46141;52.382;5.270;2023-04-10T10:46:57;21.50;62.10
60287;DHT22;46141;52.382;5.270;2023-04-10T10:50:04;21.60;61.40
60287;DHT22;46141;52.382;5.270;2023-04-10T10:52:49;21.60;62.00
60287;DHT22;46141;52.382;5.270;2023-04-10T10:57:48;21.60;62.10
60287;DHT22;46141;52.382;5.270;2023-04-10T11:01:04;21.60;62.40
60287;DHT22;46141;52.382;5.270;2023-04-10T11:08:49;21.60;62.30
60287;DHT22;46141;52.382;5.270;2023-04-10T11:11:24;21.70;63.10
60287;DHT22;46141;52.382;5.270;2023-04-10T11:16:45;21.70;62.30
60287;DHT22;46141;52.382;5.270;2023-04-10T11:19:11;21.70;62.40
60287;DHT22;46141;52.382;5.270;2023-04-10T11:22:06;21.70;62.40
60287;DHT22;46141;52.382;5.270;2023-04-10T11:27:36;21.70;62.70
60287;DHT22;46141;52.382;5.270;2023-04-10T11:30:03;21.70;62.70
60287;DHT22;46141;52.382;5.270;2023-04-10T11:32:40;21.80;62.60
60287;DHT22;46141;52.382;5.270;2023-04-10T11:35:07;21.80;62.20
60287;DHT22;46141;52.382;5.270;2023-04-10T11:37:33;21.80;62.30
60287;DHT22;46141;52.382;5.270;2023-04-10T11:40:05;21.80;62.80
60287;DHT22;46141;52.382;5.270;2023-04-10T11:42:31;21.80;62.60
60287;DHT22;46141;52.382;5.270;2023-04-10T11:44:56;21.80;62.90
60287;DHT22;46141;52.382;5.270;2023-04-10T11:47:24;21.90;62.50
60287;DHT22;46141;52.382;5.270;2023-04-10T11:49:52;21.90;62.50
60287;DHT22;46141;52.382;5.270;2023-04-10T11:52:26;21.80;62.60
60287;DHT22;46141;52.382;5.270;2023-04-10T11:54:51;21.80;62.70
60287;DHT22;46141;52.382;5.270;2023-04-10T11:57:17;21.90;62.90
60287;DHT22;46141;52.382;5.270;2023-04-10T11:59:49;21.90;62.80
60287;DHT22;46141;52.382;5.270;2023-04-10T12:02:15;21.90;62.90
60287;DHT22;46141;52.382;5.270;2023-04-10T12:04:42;21.90;63.00
60287;DHT22;46141;52.382;5.270;2023-04-10T12:07:09;22.00;62.80
60287;DHT22;46141;52.382;5.270;2023-04-10T12:09:35;22.00;62.70
60287;DHT22;46141;52.382;5.270;2023-04-10T12:12:05;22.00;62.70
60287;DHT22;46141;52.382;5.270;2023-04-10T12:14:40;22.00;63.00
60287;DHT22;46141;52.382;5.270;2023-04-10T12:17:08;22.00;62.90
60287;DHT22;46141;52.382;5.270;2023-04-10T12:19:37;22.00;63.10
60287;DHT22;46141;52.382;5.270;2023-04-10T12:22:04;22.00;63.10
60287;DHT22;46141;52.382;5.270;2023-04-10T12:24:47;22.00;63.00
60287;DHT22;46141;52.382;5.270;2023-04-10T12:27:17;22.10;63.10
60287;DHT22;46141;52.382;5.270;2023-04-10T12:29:45;22.10;63.20
60287;DHT22;46141;52.382;5.270;2023-04-10T12:32:11;22.10;63.30
60287;DHT22;46141;52.382;5.270;2023-04-10T12:34:36;22.00;63.20
60287;DHT22;46141;52.382;5.270;2023-04-10T12:37:02;22.00;63.30
60287;DHT22;46141;52.382;5.270;2023-04-10T12:39:29;22.10;63.40
60287;DHT22;46141;52.382;5.270;2023-04-10T12:42:14;22.00;63.40
60287;DHT22;46141;52.382;5.270;2023-04-10T12:44:58;22.00;63.50
60287;DHT22;46141;52.382;5.270;2023-04-10T12:47:27;22.00;63.40
60287;DHT22;46141;52.382;5.270;2023-04-10T12:50:22;22.00;63.70
60287;DHT22;46141;52.382;5.270;2023-04-10T12:53:03;22.00;63.80
60287;DHT22;46141;52.382;5.270;2023-04-10T12:55:30;22.00;64.00
60287;DHT22;46141;52.382;5.270;2023-04-10T12:57:57;21.90;63.80
60287;DHT22;46141;52.382;5.270;2023-04-10T13:00:24;21.90;63.50
60287;DHT22;46141;52.382;5.270;2023-04-10T13:02:50;21.90;63.60
60287;DHT22;46141;52.382;5.270;2023-04-10T13:05:16;22.00;63.60
60287;DHT22;46141;52.382;5.270;2023-04-10T13:07:42;21.90;63.80
60287;DHT22;46141;52.382;5.270;2023-04-10T13:10:08;21.90;63.80
60287;DHT22;46141;52.382;5.270;2023-04-10T13:12:34;21.90;63.60
60287;DHT22;46141;52.382;5.270;2023-04-10T13:15:01;21.90;63.70
60287;DHT22;46141;52.382;5.270;2023-04-10T13:17:27;21.90;63.60
60287;DHT22;46141;52.382;5.270;2023-04-10T13:19:53;21.90;63.70
60287;DHT22;46141;52.382;5.270;2023-04-10T13:22:19;21.90;63.50
60287;DHT22;46141;52.382;5.270;2023-04-10T13:24:45;21.90;63.70
60287;DHT22;46141;52.382;5.270;2023-04-10T13:27:11;21.90;63.60
60287;DHT22;46141;52.382;5.270;2023-04-10T13:29:38;21.90;63.50
60287;DHT22;46141;52.382;5.270;2023-04-10T13:32:05;21.90;63.80
60287;DHT22;46141;52.382;5.270;2023-04-10T13:34:31;21.80;63.60
60287;DHT22;46141;52.382;5.270;2023-04-10T13:36:57;21.90;63.70
60287;DHT22;46141;52.382;5.270;2023-04-10T13:39:23;21.80;63.60
60287;DHT22;46141;52.382;5.270;2023-04-10T13:41:48;21.80;63.60
60287;DHT22;46141;52.382;5.270;2023-04-10T13:44:14;21.90;63.60
60287;DHT22;46141;52.382;5.270;2023-04-10T13:46:40;21.80;63.80
60287;DHT22;46141;52.382;5.270;2023-04-10T13:49:05;21.80;63.80
60287;DHT22;46141;52.382;5.270;2023-04-10T13:51:31;21.80;63.80
60287;DHT22;46141;52.382;5.270;2023-04-10T13:53:57;21.90;63.70
60287;DHT22;46141;52.382;5.270;2023-04-10T13:56:23;21.80;63.50
60287;DHT22;46141;52.382;5.270;2023-04-10T13:58:48;21.80;63.50
60287;DHT22;46141;52.382;5.270;2023-04-10T14:01:14;21.90;63.60
60287;DHT22;46141;52.382;5.270;2023-04-10T14:03:40;21.90;63.60
60287;DHT22;46141;52.382;5.270;2023-04-10T14:06:06;21.80;63.50
60287;DHT22;46141;52.382;5.270;2023-04-10T14:08:32;21.80;63.60
60287;DHT22;46141;52.382;5.270;2023-04-10T14:10:58;21.80;63.60
60287;DHT22;46141;52.382;5.270;2023-04-10T14:13:23;21.80;63.60
60287;DHT22;46141;52.382;5.270;2023-04-10T14:15:49;21.80;63.70
60287;DHT22;46141;52.382;5.270;2023-04-10T14:18:18;21.80;63.70
60287;DHT22;46141;52.382;5.270;2023-04-10T14:20:44;21.80;63.80
60287;DHT22;46141;52.382;5.270;2023-04-10T14:23:10;21.70;63.80
60287;DHT22;46141;52.382;5.270;2023-04-10T14:25:45;21.70;63.80
60287;DHT22;46141;52.382;5.270;2023-04-10T14:28:12;21.70;63.90
60287;DHT22;46141;52.382;5.270;2023-04-10T14:30:48;21.70;64.00
60287;DHT22;46141;52.382;5.270;2023-04-10T14:33:15;21.70;64.00
60287;DHT22;46141;52.382;5.270;2023-04-10T14:35:41;21.70;64.10
60287;DHT22;46141;52.382;5.270;2023-04-10T14:38:07;21.70;64.10
60287;DHT22;46141;52.382;5.270;2023-04-10T14:40:33;21.70;64.20
60287;DHT22;46141;52.382;5.270;2023-04-10T14:42:58;21.70;64.20
60287;DHT22;46141;52.382;5.270;2023-04-10T14:45:24;21.70;64.10
60287;DHT22;46141;52.382;5.270;2023-04-10T14:47:52;21.70;64.20
60287;DHT22;46141;52.382;5.270;2023-04-10T14:50:18;21.60;64.40
60287;DHT22;46141;52.382;5.270;2023-04-10T14:52:43;21.60;64.50
60287;DHT22;46141;52.382;5.270;2023-04-10T14:55:09;21.60;64.50
60287;DHT22;46141;52.382;5.270;2023-04-10T14:57:35;21.60;64.60
60287;DHT22;46141;52.382;5.270;2023-04-10T15:00:02;21.60;64.70
60287;DHT22;46141;52.382;5.270;2023-04-10T15:02:28;21.60;64.60
60287;DHT22;46141;52.382;5.270;2023-04-10T15:04:54;21.60;64.60
60287;DHT22;46141;52.382;5.270;2023-04-10T15:07:20;21.60;64.70
60287;DHT22;46141;52.382;5.270;2023-04-10T15:09:46;21.60;64.70
60287;DHT22;46141;52.382;5.270;2023-04-10T15:12:12;21.60;64.70
60287;DHT22;46141;52.382;5.270;2023-04-10T15:14:37;21.50;64.80
60287;DHT22;46141;52.382;5.270;2023-04-10T15:17:03;21.60;64.90
60287;DHT22;46141;52.382;5.270;2023-04-10T15:19:29;21.50;64.90
60287;DHT22;46141;52.382;5.270;2023-04-10T15:21:55;21.50;64.80
60287;DHT22;46141;52.382;5.270;2023-04-10T15:24:20;21.50;64.80
60287;DHT22;46141;52.382;5.270;2023-04-10T15:26:46;21.50;64.80
60287;DHT22;46141;52.382;5.270;2023-04-10T15:29:12;21.50;64.90
60287;DHT22;46141;52.382;5.270;2023-04-10T15:31:38;21.50;64.90
60287;DHT22;46141;52.382;5.270;2023-04-10T15:34:03;21.40;64.90
60287;DHT22;46141;52.382;5.270;2023-04-10T15:36:29;21.50;65.10
60287;DHT22;46141;52.382;5.270;2023-04-10T15:38:56;21.50;65.10
60287;DHT22;46141;52.382;5.270;2023-04-10T15:41:24;21.40;65.10
60287;DHT22;46141;52.382;5.270;2023-04-10T15:43:52;21.40;65.30
60287;DHT22;46141;52.382;5.270;2023-04-10T15:46:17;21.40;65.40
60287;DHT22;46141;52.382;5.270;2023-04-10T15:48:43;21.40;65.50
60287;DHT22;46141;52.382;5.270;2023-04-10T15:51:10;21.40;66.30
60287;DHT22;46141;52.382;5.270;2023-04-10T15:53:36;21.40;65.70
60287;DHT22;46141;52.382;5.270;2023-04-10T15:56:05;21.40;65.90
60287;DHT22;46141;52.382;5.270;2023-04-10T15:58:32;21.40;65.90
60287;DHT22;46141;52.382;5.270;2023-04-10T16:00:58;21.40;65.80
60287;DHT22;46141;52.382;5.270;2023-04-10T16:03:23;21.40;65.70
60287;DHT22;46141;52.382;5.270;2023-04-10T16:05:51;21.40;65.80